sensor_id;sensor_type;location;lat;lon;timestamp;P1;durP1;ratioP1;P2;durP2;ratioP2
40284;SDS011;25997;50.214;19.354;2022-09-01T00:00:04;14.68;;;5.75;;
40284;SDS011;25997;50.214;19.354;2022-09-01T00:03:10;17.27;;;6.25;;
40284;SDS011;25997;50.214;19.354;2022-09-01T00:06:15;11.05;;;5.63;;
40284;SDS011;25997;50.214;19.354;2022-09-01T00:09:22;9.45;;;5.68;;
40284;SDS011;25997;50.214;19.354;2022-09-01T00:12:25;12.27;;;5.85;;
40284;SDS011;25997;50.214;19.354;2022-09-01T00:15:28;7.40;;;5.00;;
40284;SDS011;25997;50.214;19.354;2022-09-01T00:18:31;8.02;;;5.07;;
40284;SDS011;25997;50.214;19.354;2022-09-01T00:21:36;9.52;;;5.20;;
40284;SDS011;25997;50.214;19.354;2022-09-01T00:24:40;12.32;;;5.72;;
40284;SDS011;25997;50.214;19.354;2022-09-01T00:27:43;10.85;;;6.65;;
40284;SDS011;25997;50.214;19.354;2022-09-01T00:30:46;11.05;;;6.82;;
40284;SDS011;25997;50.214;19.354;2022-09-01T00:33:49;8.73;;;5.50;;
40284;SDS011;25997;50.214;19.354;2022-09-01T00:36:53;11.18;;;6.25;;
40284;SDS011;25997;50.214;19.354;2022-09-01T00:39:56;9.05;;;5.35;;
40284;SDS011;25997;50.214;19.354;2022-09-01T00:42:59;9.52;;;5.32;;
40284;SDS011;25997;50.214;19.354;2022-09-01T00:46:02;11.35;;;5.60;;
40284;SDS011;25997;50.214;19.354;2022-09-01T00:49:07;8.20;;;5.18;;
40284;SDS011;25997;50.214;19.354;2022-09-01T00:52:15;7.38;;;4.70;;
40284;SDS011;25997;50.214;19.354;2022-09-01T00:55:26;9.73;;;5.05;;
40284;SDS011;25997;50.214;19.354;2022-09-01T00:58:31;8.40;;;4.65;;
40284;SDS011;25997;50.214;19.354;2022-09-01T01:01:35;11.23;;;6.07;;
40284;SDS011;25997;50.214;19.354;2022-09-01T01:04:38;10.68;;;6.03;;
40284;SDS011;25997;50.214;19.354;2022-09-01T01:07:44;11.32;;;6.43;;
40284;SDS011;25997;50.214;19.354;2022-09-01T01:10:47;12.43;;;6.97;;
40284;SDS011;25997;50.214;19.354;2022-09-01T01:13:50;9.90;;;5.97;;
40284;SDS011;25997;50.214;19.354;2022-09-01T01:16:55;9.93;;;5.65;;
40284;SDS011;25997;50.214;19.354;2022-09-01T01:19:58;15.05;;;6.25;;
40284;SDS011;25997;50.214;19.354;2022-09-01T01:23:22;13.50;;;6.32;;
40284;SDS011;25997;50.214;19.354;2022-09-01T01:26:32;10.52;;;5.97;;
40284;SDS011;25997;50.214;19.354;2022-09-01T01:29:35;9.90;;;5.75;;
40284;SDS011;25997;50.214;19.354;2022-09-01T01:32:39;12.68;;;6.68;;
40284;SDS011;25997;50.214;19.354;2022-09-01T01:35:43;10.65;;;6.88;;
40284;SDS011;25997;50.214;19.354;2022-09-01T01:38:47;15.68;;;9.45;;
40284;SDS011;25997;50.214;19.354;2022-09-01T01:41:52;12.00;;;8.57;;
40284;SDS011;25997;50.214;19.354;2022-09-01T01:44:58;9.35;;;6.88;;
40284;SDS011;25997;50.214;19.354;2022-09-01T01:48:01;9.40;;;6.90;;
40284;SDS011;25997;50.214;19.354;2022-09-01T01:51:08;11.70;;;6.70;;
40284;SDS011;25997;50.214;19.354;2022-09-01T01:54:14;7.90;;;5.07;;
40284;SDS011;25997;50.214;19.354;2022-09-01T01:57:21;9.10;;;5.45;;
40284;SDS011;25997;50.214;19.354;2022-09-01T02:00:25;7.65;;;3.88;;
40284;SDS011;25997;50.214;19.354;2022-09-01T02:03:30;9.98;;;4.95;;
40284;SDS011;25997;50.214;19.354;2022-09-01T02:06:38;6.80;;;4.43;;
40284;SDS011;25997;50.214;19.354;2022-09-01T02:09:45;9.75;;;4.22;;
40284;SDS011;25997;50.214;19.354;2022-09-01T02:12:50;6.22;;;4.10;;
40284;SDS011;25997;50.214;19.354;2022-09-01T02:15:56;8.40;;;4.63;;
40284;SDS011;25997;50.214;19.354;2022-09-01T02:19:00;10.85;;;5.20;;
40284;SDS011;25997;50.214;19.354;2022-09-01T02:22:08;10.32;;;5.43;;
40284;SDS011;25997;50.214;19.354;2022-09-01T02:25:11;9.90;;;5.75;;
40284;SDS011;25997;50.214;19.354;2022-09-01T02:28:17;12.52;;;7.30;;
40284;SDS011;25997;50.214;19.354;2022-09-01T02:31:22;21.33;;;8.20;;
40284;SDS011;25997;50.214;19.354;2022-09-01T02:34:28;11.38;;;6.80;;
40284;SDS011;25997;50.214;19.354;2022-09-01T02:37:32;15.07;;;8.10;;
40284;SDS011;25997;50.214;19.354;2022-09-01T02:40:34;12.57;;;7.53;;
40284;SDS011;25997;50.214;19.354;2022-09-01T02:43:41;14.15;;;8.23;;
40284;SDS011;25997;50.214;19.354;2022-09-01T02:46:46;13.43;;;8.27;;
40284;SDS011;25997;50.214;19.354;2022-09-01T02:49:51;18.95;;;7.80;;
40284;SDS011;25997;50.214;19.354;2022-09-01T02:52:54;14.10;;;8.23;;
40284;SDS011;25997;50.214;19.354;2022-09-01T02:55:57;13.60;;;7.35;;
40284;SDS011;25997;50.214;19.354;2022-09-01T02:59:03;14.13;;;8.85;;
40284;SDS011;25997;50.214;19.354;2022-09-01T03:02:05;17.25;;;7.40;;
40284;SDS011;25997;50.214;19.354;2022-09-01T03:05:08;11.35;;;6.50;;
40284;SDS011;25997;50.214;19.354;2022-09-01T03:08:11;11.27;;;6.28;;
40284;SDS011;25997;50.214;19.354;2022-09-01T03:11:16;17.08;;;6.82;;
40284;SDS011;25997;50.214;19.354;2022-09-01T03:14:21;12.13;;;5.88;;
40284;SDS011;25997;50.214;19.354;2022-09-01T03:17:23;13.65;;;6.15;;
40284;SDS011;25997;50.214;19.354;2022-09-01T03:20:26;7.47;;;5.65;;
40284;SDS011;25997;50.214;19.354;2022-09-01T03:23:33;10.85;;;5.45;;
40284;SDS011;25997;50.214;19.354;2022-09-01T03:26:37;10.57;;;6.32;;
40284;SDS011;25997;50.214;19.354;2022-09-01T03:29:41;9.70;;;5.03;;
40284;SDS011;25997;50.214;19.354;2022-09-01T03:32:44;8.32;;;5.25;;
40284;SDS011;25997;50.214;19.354;2022-09-01T03:35:48;8.18;;;5.25;;
40284;SDS011;25997;50.214;19.354;2022-09-01T03:38:51;7.28;;;4.90;;
40284;SDS011;25997;50.214;19.354;2022-09-01T03:41:56;8.20;;;4.60;;
40284;SDS011;25997;50.214;19.354;2022-09-01T03:45:01;12.23;;;8.27;;
40284;SDS011;25997;50.214;19.354;2022-09-01T03:48:13;18.20;;;16.50;;
40284;SDS011;25997;50.214;19.354;2022-09-01T03:51:17;9.43;;;7.43;;
40284;SDS011;25997;50.214;19.354;2022-09-01T03:54:22;12.20;;;11.10;;
40284;SDS011;25997;50.214;19.354;2022-09-01T03:57:27;11.07;;;7.97;;
40284;SDS011;25997;50.214;19.354;2022-09-01T04:00:32;10.20;;;8.88;;
40284;SDS011;25997;50.214;19.354;2022-09-01T04:03:37;10.55;;;7.47;;
40284;SDS011;25997;50.214;19.354;2022-09-01T04:06:41;7.15;;;6.45;;
40284;SDS011;25997;50.214;19.354;2022-09-01T04:09:45;5.72;;;4.38;;
40284;SDS011;25997;50.214;19.354;2022-09-01T04:12:47;5.30;;;3.92;;
40284;SDS011;25997;50.214;19.354;2022-09-01T04:15:52;5.03;;;3.10;;
40284;SDS011;25997;50.214;19.354;2022-09-01T04:18:57;4.43;;;3.40;;
40284;SDS011;25997;50.214;19.354;2022-09-01T04:22:00;4.55;;;3.13;;
40284;SDS011;25997;50.214;19.354;2022-09-01T04:25:07;4.70;;;2.90;;
40284;SDS011;25997;50.214;19.354;2022-09-01T04:28:10;4.88;;;2.97;;
40284;SDS011;25997;50.214;19.354;2022-09-01T04:31:24;3.05;;;2.53;;
40284;SDS011;25997;50.214;19.354;2022-09-01T04:34:27;3.90;;;2.47;;
40284;SDS011;25997;50.214;19.354;2022-09-01T04:37:37;3.88;;;2.42;;
40284;SDS011;25997;50.214;19.354;2022-09-01T04:40:41;4.97;;;2.50;;
40284;SDS011;25997;50.214;19.354;2022-09-01T04:43:44;4.07;;;2.80;;
40284;SDS011;25997;50.214;19.354;2022-09-01T04:46:49;4.32;;;2.50;;
40284;SDS011;25997;50.214;19.354;2022-09-01T04:49:53;6.10;;;3.22;;
40284;SDS011;25997;50.214;19.354;2022-09-01T04:52:58;13.48;;;6.47;;
40284;SDS011;25997;50.214;19.354;2022-09-01T04:56:05;9.00;;;4.35;;
40284;SDS011;25997;50.214;19.354;2022-09-01T04:59:13;8.57;;;4.80;;
40284;SDS011;25997;50.214;19.354;2022-09-01T05:02:23;5.47;;;3.50;;
40284;SDS011;25997;50.214;19.354;2022-09-01T05:05:34;7.22;;;4.03;;
40284;SDS011;25997;50.214;19.354;2022-09-01T05:08:42;5.40;;;4.60;;
40284;SDS011;25997;50.214;19.354;2022-09-01T05:11:54;12.55;;;8.10;;
40284;SDS011;25997;50.214;19.354;2022-09-01T05:15:02;11.15;;;5.85;;
40284;SDS011;25997;50.214;19.354;2022-09-01T05:18:10;10.57;;;6.90;;
40284;SDS011;25997;50.214;19.354;2022-09-01T05:21:14;12.30;;;6.63;;
40284;SDS011;25997;50.214;19.354;2022-09-01T05:24:22;8.57;;;4.95;;
40284;SDS011;25997;50.214;19.354;2022-09-01T05:27:28;8.60;;;5.50;;
40284;SDS011;25997;50.214;19.354;2022-09-01T05:30:32;11.60;;;6.38;;
40284;SDS011;25997;50.214;19.354;2022-09-01T05:33:37;10.93;;;6.20;;
40284;SDS011;25997;50.214;19.354;2022-09-01T05:36:45;9.48;;;7.32;;
40284;SDS011;25997;50.214;19.354;2022-09-01T05:39:51;13.57;;;10.00;;
40284;SDS011;25997;50.214;19.354;2022-09-01T05:42:54;16.23;;;10.50;;
40284;SDS011;25997;50.214;19.354;2022-09-01T05:45:57;10.55;;;8.95;;
40284;SDS011;25997;50.214;19.354;2022-09-01T05:49:02;10.00;;;8.13;;
40284;SDS011;25997;50.214;19.354;2022-09-01T05:52:08;8.88;;;5.15;;
40284;SDS011;25997;50.214;19.354;2022-09-01T05:55:12;4.90;;;3.78;;
40284;SDS011;25997;50.214;19.354;2022-09-01T05:58:17;6.05;;;3.55;;
40284;SDS011;25997;50.214;19.354;2022-09-01T06:01:21;3.97;;;2.65;;
40284;SDS011;25997;50.214;19.354;2022-09-01T06:04:27;3.90;;;2.88;;
40284;SDS011;25997;50.214;19.354;2022-09-01T06:07:36;5.05;;;2.55;;
40284;SDS011;25997;50.214;19.354;2022-09-01T06:10:42;3.72;;;2.58;;
40284;SDS011;25997;50.214;19.354;2022-09-01T06:13:45;3.95;;;2.33;;
40284;SDS011;25997;50.214;19.354;2022-09-01T06:16:47;5.28;;;2.33;;
40284;SDS011;25997;50.214;19.354;2022-09-01T06:19:54;5.43;;;2.35;;
40284;SDS011;25997;50.214;19.354;2022-09-01T06:22:58;5.55;;;2.22;;
40284;SDS011;25997;50.214;19.354;2022-09-01T06:26:02;4.88;;;2.58;;
40284;SDS011;25997;50.214;19.354;2022-09-01T06:29:06;4.60;;;1.98;;
40284;SDS011;25997;50.214;19.354;2022-09-01T06:32:21;3.17;;;2.10;;
40284;SDS011;25997;50.214;19.354;2022-09-01T06:35:27;4.82;;;2.42;;
40284;SDS011;25997;50.214;19.354;2022-09-01T06:38:30;4.70;;;2.20;;
40284;SDS011;25997;50.214;19.354;2022-09-01T06:41:34;4.18;;;2.33;;
40284;SDS011;25997;50.214;19.354;2022-09-01T06:44:44;5.00;;;2.45;;
40284;SDS011;25997;50.214;19.354;2022-09-01T06:47:47;4.13;;;2.25;;
40284;SDS011;25997;50.214;19.354;2022-09-01T06:50:52;3.47;;;1.83;;
40284;SDS011;25997;50.214;19.354;2022-09-01T06:53:54;4.38;;;2.03;;
40284;SDS011;25997;50.214;19.354;2022-09-01T06:57:05;3.20;;;1.90;;
40284;SDS011;25997;50.214;19.354;2022-09-01T07:00:08;3.35;;;2.00;;
40284;SDS011;25997;50.214;19.354;2022-09-01T07:03:18;4.18;;;2.33;;
40284;SDS011;25997;50.214;19.354;2022-09-01T07:06:48;3.40;;;2.10;;
40284;SDS011;25997;50.214;19.354;2022-09-01T07:09:51;5.10;;;2.10;;
40284;SDS011;25997;50.214;19.354;2022-09-01T07:13:09;3.47;;;1.98;;
40284;SDS011;25997;50.214;19.354;2022-09-01T07:16:21;2.70;;;1.73;;
40284;SDS011;25997;50.214;19.354;2022-09-01T07:19:26;3.53;;;1.60;;
40284;SDS011;25997;50.214;19.354;2022-09-01T07:22:35;3.00;;;1.55;;
40284;SDS011;25997;50.214;19.354;2022-09-01T07:25:38;4.10;;;1.95;;
40284;SDS011;25997;50.214;19.354;2022-09-01T07:28:54;5.15;;;1.55;;
40284;SDS011;25997;50.214;19.354;2022-09-01T07:31:57;3.45;;;2.00;;
40284;SDS011;25997;50.214;19.354;2022-09-01T07:35:00;4.03;;;1.80;;
40284;SDS011;25997;50.214;19.354;2022-09-01T07:38:07;3.08;;;1.23;;
40284;SDS011;25997;50.214;19.354;2022-09-01T07:41:13;3.13;;;1.60;;
40284;SDS011;25997;50.214;19.354;2022-09-01T07:44:35;5.63;;;2.00;;
40284;SDS011;25997;50.214;19.354;2022-09-01T07:48:07;5.10;;;1.50;;
40284;SDS011;25997;50.214;19.354;2022-09-01T07:51:20;4.03;;;1.70;;
40284;SDS011;25997;50.214;19.354;2022-09-01T07:54:25;2.65;;;1.50;;
40284;SDS011;25997;50.214;19.354;2022-09-01T07:57:28;5.47;;;1.70;;
40284;SDS011;25997;50.214;19.354;2022-09-01T08:00:32;4.05;;;1.60;;
40284;SDS011;25997;50.214;19.354;2022-09-01T08:03:40;2.92;;;1.65;;
40284;SDS011;25997;50.214;19.354;2022-09-01T08:06:42;2.78;;;1.25;;
40284;SDS011;25997;50.214;19.354;2022-09-01T08:09:47;3.05;;;1.05;;
40284;SDS011;25997;50.214;19.354;2022-09-01T08:12:50;2.13;;;1.50;;
40284;SDS011;25997;50.214;19.354;2022-09-01T08:15:53;2.25;;;1.23;;
40284;SDS011;25997;50.214;19.354;2022-09-01T08:18:56;3.85;;;1.40;;
40284;SDS011;25997;50.214;19.354;2022-09-01T08:22:19;2.35;;;1.20;;
40284;SDS011;25997;50.214;19.354;2022-09-01T08:25:39;2.40;;;0.98;;
40284;SDS011;25997;50.214;19.354;2022-09-01T08:28:43;3.65;;;1.45;;
40284;SDS011;25997;50.214;19.354;2022-09-01T08:31:46;2.65;;;1.17;;
40284;SDS011;25997;50.214;19.354;2022-09-01T08:34:49;2.90;;;1.17;;
40284;SDS011;25997;50.214;19.354;2022-09-01T08:37:53;3.00;;;1.55;;
40284;SDS011;25997;50.214;19.354;2022-09-01T08:40:58;2.88;;;1.10;;
40284;SDS011;25997;50.214;19.354;2022-09-01T08:44:08;2.53;;;1.10;;
40284;SDS011;25997;50.214;19.354;2022-09-01T08:47:18;3.58;;;0.95;;
40284;SDS011;25997;50.214;19.354;2022-09-01T08:50:21;1.10;;;0.63;;
40284;SDS011;25997;50.214;19.354;2022-09-01T08:53:25;4.10;;;0.90;;
40284;SDS011;25997;50.214;19.354;2022-09-01T08:56:31;3.33;;;0.88;;
40284;SDS011;25997;50.214;19.354;2022-09-01T08:59:38;1.95;;;0.90;;
40284;SDS011;25997;50.214;19.354;2022-09-01T09:02:57;2.75;;;1.13;;
40284;SDS011;25997;50.214;19.354;2022-09-01T09:06:10;2.17;;;0.90;;
40284;SDS011;25997;50.214;19.354;2022-09-01T09:09:18;1.42;;;0.70;;
40284;SDS011;25997;50.214;19.354;2022-09-01T09:12:28;1.88;;;1.00;;
40284;SDS011;25997;50.214;19.354;2022-09-01T09:15:42;1.77;;;0.80;;
40284;SDS011;25997;50.214;19.354;2022-09-01T09:18:48;2.45;;;1.08;;
40284;SDS011;25997;50.214;19.354;2022-09-01T09:21:55;1.20;;;0.88;;
40284;SDS011;25997;50.214;19.354;2022-09-01T09:25:01;3.90;;;1.27;;
40284;SDS011;25997;50.214;19.354;2022-09-01T09:28:10;2.58;;;0.93;;
40284;SDS011;25997;50.214;19.354;2022-09-01T09:31:30;1.70;;;0.85;;
40284;SDS011;25997;50.214;19.354;2022-09-01T09:34:35;1.27;;;0.90;;
40284;SDS011;25997;50.214;19.354;2022-09-01T09:37:39;1.92;;;1.00;;
40284;SDS011;25997;50.214;19.354;2022-09-01T09:40:50;3.00;;;1.02;;
40284;SDS011;25997;50.214;19.354;2022-09-01T09:44:02;1.80;;;0.90;;
40284;SDS011;25997;50.214;19.354;2022-09-01T09:47:06;2.03;;;1.13;;
40284;SDS011;25997;50.214;19.354;2022-09-01T09:50:12;1.40;;;0.80;;
40284;SDS011;25997;50.214;19.354;2022-09-01T09:53:24;1.70;;;1.20;;
40284;SDS011;25997;50.214;19.354;2022-09-01T09:56:29;3.30;;;1.63;;
40284;SDS011;25997;50.214;19.354;2022-09-01T09:59:35;1.00;;;0.70;;
40284;SDS011;25997;50.214;19.354;2022-09-01T10:02:41;2.10;;;1.10;;
40284;SDS011;25997;50.214;19.354;2022-09-01T10:05:45;1.58;;;1.25;;
40284;SDS011;25997;50.214;19.354;2022-09-01T10:08:51;1.73;;;1.15;;
40284;SDS011;25997;50.214;19.354;2022-09-01T10:11:54;3.00;;;0.95;;
40284;SDS011;25997;50.214;19.354;2022-09-01T10:15:00;3.35;;;1.38;;
40284;SDS011;25997;50.214;19.354;2022-09-01T10:18:05;1.67;;;1.15;;
40284;SDS011;25997;50.214;19.354;2022-09-01T10:21:14;1.58;;;0.90;;
40284;SDS011;25997;50.214;19.354;2022-09-01T10:24:23;3.03;;;1.17;;
40284;SDS011;25997;50.214;19.354;2022-09-01T10:27:31;3.17;;;1.20;;
40284;SDS011;25997;50.214;19.354;2022-09-01T10:30:39;1.83;;;1.33;;
40284;SDS011;25997;50.214;19.354;2022-09-01T10:33:45;2.10;;;1.63;;
40284;SDS011;25997;50.214;19.354;2022-09-01T10:36:49;3.03;;;1.40;;
40284;SDS011;25997;50.214;19.354;2022-09-01T10:43:40;1.75;;;1.10;;
40284;SDS011;25997;50.214;19.354;2022-09-01T10:46:46;2.67;;;1.20;;
40284;SDS011;25997;50.214;19.354;2022-09-01T10:53:03;2.90;;;1.77;;
40284;SDS011;25997;50.214;19.354;2022-09-01T10:56:08;2.22;;;1.30;;
40284;SDS011;25997;50.214;19.354;2022-09-01T10:59:23;2.20;;;1.05;;
40284;SDS011;25997;50.214;19.354;2022-09-01T11:02:30;3.45;;;1.27;;
40284;SDS011;25997;50.214;19.354;2022-09-01T11:09:02;2.70;;;1.20;;
40284;SDS011;25997;50.214;19.354;2022-09-01T11:12:24;3.38;;;1.05;;
40284;SDS011;25997;50.214;19.354;2022-09-01T11:15:48;2.20;;;0.90;;
40284;SDS011;25997;50.214;19.354;2022-09-01T11:18:53;1.75;;;1.05;;
40284;SDS011;25997;50.214;19.354;2022-09-01T11:22:03;3.20;;;2.17;;
40284;SDS011;25997;50.214;19.354;2022-09-01T11:28:39;2.88;;;1.05;;
40284;SDS011;25997;50.214;19.354;2022-09-01T11:31:44;2.35;;;1.27;;
40284;SDS011;25997;50.214;19.354;2022-09-01T11:34:49;1.65;;;1.05;;
40284;SDS011;25997;50.214;19.354;2022-09-01T11:37:54;2.13;;;1.15;;
40284;SDS011;25997;50.214;19.354;2022-09-01T11:41:02;1.90;;;1.20;;
40284;SDS011;25997;50.214;19.354;2022-09-01T11:44:09;2.90;;;1.13;;
40284;SDS011;25997;50.214;19.354;2022-09-01T11:47:15;1.85;;;1.00;;
40284;SDS011;25997;50.214;19.354;2022-09-01T11:50:23;2.92;;;1.30;;
40284;SDS011;25997;50.214;19.354;2022-09-01T11:53:28;1.48;;;1.00;;
40284;SDS011;25997;50.214;19.354;2022-09-01T11:56:31;2.70;;;1.60;;
40284;SDS011;25997;50.214;19.354;2022-09-01T11:59:36;2.63;;;1.20;;
40284;SDS011;25997;50.214;19.354;2022-09-01T12:02:42;2.60;;;1.30;;
40284;SDS011;25997;50.214;19.354;2022-09-01T12:05:51;1.52;;;1.20;;
40284;SDS011;25997;50.214;19.354;2022-09-01T12:09:02;1.98;;;1.20;;
40284;SDS011;25997;50.214;19.354;2022-09-01T12:12:23;2.20;;;1.25;;
40284;SDS011;25997;50.214;19.354;2022-09-01T12:15:29;2.47;;;1.10;;
40284;SDS011;25997;50.214;19.354;2022-09-01T12:18:32;1.90;;;1.08;;
40284;SDS011;25997;50.214;19.354;2022-09-01T12:21:39;3.33;;;0.95;;
40284;SDS011;25997;50.214;19.354;2022-09-01T12:24:44;1.98;;;1.30;;
40284;SDS011;25997;50.214;19.354;2022-09-01T12:27:48;5.57;;;1.20;;
40284;SDS011;25997;50.214;19.354;2022-09-01T12:30:51;5.60;;;1.50;;
40284;SDS011;25997;50.214;19.354;2022-09-01T12:33:56;2.28;;;1.10;;
40284;SDS011;25997;50.214;19.354;2022-09-01T12:37:05;2.10;;;1.20;;
40284;SDS011;25997;50.214;19.354;2022-09-01T12:40:20;1.75;;;1.40;;
40284;SDS011;25997;50.214;19.354;2022-09-01T12:43:27;2.42;;;1.50;;
40284;SDS011;25997;50.214;19.354;2022-09-01T12:52:46;2.10;;;1.33;;
40284;SDS011;25997;50.214;19.354;2022-09-01T12:55:55;1.58;;;1.27;;
40284;SDS011;25997;50.214;19.354;2022-09-01T12:59:05;2.63;;;1.40;;
40284;SDS011;25997;50.214;19.354;2022-09-01T13:02:26;2.45;;;0.80;;
40284;SDS011;25997;50.214;19.354;2022-09-01T13:05:35;2.50;;;1.48;;
40284;SDS011;25997;50.214;19.354;2022-09-01T13:08:41;2.03;;;1.02;;
40284;SDS011;25997;50.214;19.354;2022-09-01T13:11:43;1.60;;;1.10;;
40284;SDS011;25997;50.214;19.354;2022-09-01T13:14:47;1.95;;;1.13;;
40284;SDS011;25997;50.214;19.354;2022-09-01T13:17:51;2.85;;;1.38;;
40284;SDS011;25997;50.214;19.354;2022-09-01T13:20:54;2.58;;;1.40;;
40284;SDS011;25997;50.214;19.354;2022-09-01T13:23:59;2.13;;;1.70;;
40284;SDS011;25997;50.214;19.354;2022-09-01T13:27:02;1.40;;;1.00;;
40284;SDS011;25997;50.214;19.354;2022-09-01T13:30:05;1.98;;;1.25;;
40284;SDS011;25997;50.214;19.354;2022-09-01T13:33:08;1.50;;;1.10;;
40284;SDS011;25997;50.214;19.354;2022-09-01T13:36:11;2.22;;;1.58;;
40284;SDS011;25997;50.214;19.354;2022-09-01T13:39:15;1.10;;;0.98;;
40284;SDS011;25997;50.214;19.354;2022-09-01T13:42:18;2.13;;;0.95;;
40284;SDS011;25997;50.214;19.354;2022-09-01T13:45:22;3.58;;;0.90;;
40284;SDS011;25997;50.214;19.354;2022-09-01T13:48:25;5.97;;;1.30;;
40284;SDS011;25997;50.214;19.354;2022-09-01T13:51:28;1.67;;;1.00;;
40284;SDS011;25997;50.214;19.354;2022-09-01T13:54:32;1.80;;;1.08;;
40284;SDS011;25997;50.214;19.354;2022-09-01T13:57:35;1.70;;;0.90;;
40284;SDS011;25997;50.214;19.354;2022-09-01T14:00:39;1.50;;;1.20;;
40284;SDS011;25997;50.214;19.354;2022-09-01T14:03:43;2.10;;;1.30;;
40284;SDS011;25997;50.214;19.354;2022-09-01T14:06:46;2.50;;;1.00;;
40284;SDS011;25997;50.214;19.354;2022-09-01T14:09:50;1.92;;;1.13;;
40284;SDS011;25997;50.214;19.354;2022-09-01T14:12:52;1.60;;;0.98;;
40284;SDS011;25997;50.214;19.354;2022-09-01T14:15:55;1.42;;;1.13;;
40284;SDS011;25997;50.214;19.354;2022-09-01T14:18:58;2.05;;;1.10;;
40284;SDS011;25997;50.214;19.354;2022-09-01T14:22:01;2.40;;;1.08;;
40284;SDS011;25997;50.214;19.354;2022-09-01T14:25:08;2.60;;;0.90;;
40284;SDS011;25997;50.214;19.354;2022-09-01T14:28:11;3.42;;;1.25;;
40284;SDS011;25997;50.214;19.354;2022-09-01T14:31:15;1.90;;;1.23;;
40284;SDS011;25997;50.214;19.354;2022-09-01T14:34:19;1.75;;;0.98;;
40284;SDS011;25997;50.214;19.354;2022-09-01T14:37:21;1.65;;;1.13;;
40284;SDS011;25997;50.214;19.354;2022-09-01T14:40:26;1.40;;;1.00;;
40284;SDS011;25997;50.214;19.354;2022-09-01T14:43:29;1.75;;;1.25;;
40284;SDS011;25997;50.214;19.354;2022-09-01T14:46:32;2.05;;;0.80;;
40284;SDS011;25997;50.214;19.354;2022-09-01T14:49:36;2.95;;;1.27;;
40284;SDS011;25997;50.214;19.354;2022-09-01T14:52:39;1.98;;;1.15;;
40284;SDS011;25997;50.214;19.354;2022-09-01T14:55:43;1.70;;;1.23;;
40284;SDS011;25997;50.214;19.354;2022-09-01T14:58:46;1.83;;;0.90;;
40284;SDS011;25997;50.214;19.354;2022-09-01T15:01:50;1.40;;;0.90;;
40284;SDS011;25997;50.214;19.354;2022-09-01T15:04:52;1.80;;;0.80;;
40284;SDS011;25997;50.214;19.354;2022-09-01T15:07:55;2.47;;;0.82;;
40284;SDS011;25997;50.214;19.354;2022-09-01T15:10:59;1.70;;;1.10;;
40284;SDS011;25997;50.214;19.354;2022-09-01T15:14:02;2.38;;;1.17;;
40284;SDS011;25997;50.214;19.354;2022-09-01T15:17:04;2.47;;;1.40;;
40284;SDS011;25997;50.214;19.354;2022-09-01T15:20:08;1.58;;;1.10;;
40284;SDS011;25997;50.214;19.354;2022-09-01T15:23:28;1.80;;;0.93;;
40284;SDS011;25997;50.214;19.354;2022-09-01T15:26:32;1.13;;;0.70;;
40284;SDS011;25997;50.214;19.354;2022-09-01T15:29:36;1.63;;;0.98;;
40284;SDS011;25997;50.214;19.354;2022-09-01T15:32:46;2.88;;;1.25;;
40284;SDS011;25997;50.214;19.354;2022-09-01T15:35:50;1.48;;;0.90;;
40284;SDS011;25997;50.214;19.354;2022-09-01T15:38:52;2.53;;;1.50;;
40284;SDS011;25997;50.214;19.354;2022-09-01T15:41:57;1.83;;;0.98;;
40284;SDS011;25997;50.214;19.354;2022-09-01T15:44:59;2.35;;;1.25;;
40284;SDS011;25997;50.214;19.354;2022-09-01T15:48:02;1.35;;;0.80;;
40284;SDS011;25997;50.214;19.354;2022-09-01T15:51:11;1.63;;;1.08;;
40284;SDS011;25997;50.214;19.354;2022-09-01T15:54:30;2.00;;;0.90;;
40284;SDS011;25997;50.214;19.354;2022-09-01T15:57:39;2.72;;;1.20;;
40284;SDS011;25997;50.214;19.354;2022-09-01T16:00:41;4.82;;;1.38;;
40284;SDS011;25997;50.214;19.354;2022-09-01T16:03:45;4.00;;;2.15;;
40284;SDS011;25997;50.214;19.354;2022-09-01T16:06:48;4.20;;;1.45;;
40284;SDS011;25997;50.214;19.354;2022-09-01T16:09:52;4.72;;;1.38;;
40284;SDS011;25997;50.214;19.354;2022-09-01T16:12:59;4.20;;;1.80;;
40284;SDS011;25997;50.214;19.354;2022-09-01T16:16:04;4.47;;;1.92;;
40284;SDS011;25997;50.214;19.354;2022-09-01T16:19:17;5.05;;;1.80;;
40284;SDS011;25997;50.214;19.354;2022-09-01T16:22:29;4.03;;;1.42;;
40284;SDS011;25997;50.214;19.354;2022-09-01T16:25:35;9.50;;;2.47;;
40284;SDS011;25997;50.214;19.354;2022-09-01T16:28:39;12.57;;;9.25;;
40284;SDS011;25997;50.214;19.354;2022-09-01T16:31:46;10.20;;;7.95;;
40284;SDS011;25997;50.214;19.354;2022-09-01T16:34:54;7.80;;;4.85;;
40284;SDS011;25997;50.214;19.354;2022-09-01T16:38:00;5.57;;;3.80;;
40284;SDS011;25997;50.214;19.354;2022-09-01T16:41:18;5.78;;;3.92;;
40284;SDS011;25997;50.214;19.354;2022-09-01T16:44:45;5.72;;;3.58;;
40284;SDS011;25997;50.214;19.354;2022-09-01T16:48:00;7.40;;;2.78;;
40284;SDS011;25997;50.214;19.354;2022-09-01T16:51:11;9.02;;;4.28;;
40284;SDS011;25997;50.214;19.354;2022-09-01T16:54:17;8.35;;;3.40;;
40284;SDS011;25997;50.214;19.354;2022-09-01T16:57:32;6.00;;;3.00;;
40284;SDS011;25997;50.214;19.354;2022-09-01T17:00:44;7.60;;;4.63;;
40284;SDS011;25997;50.214;19.354;2022-09-01T17:04:01;9.77;;;4.43;;
40284;SDS011;25997;50.214;19.354;2022-09-01T17:07:19;8.00;;;5.07;;
40284;SDS011;25997;50.214;19.354;2022-09-01T17:13:35;11.10;;;7.43;;
40284;SDS011;25997;50.214;19.354;2022-09-01T17:16:41;14.13;;;9.27;;
40284;SDS011;25997;50.214;19.354;2022-09-01T17:19:48;9.95;;;6.68;;
40284;SDS011;25997;50.214;19.354;2022-09-01T17:22:55;18.65;;;11.70;;
40284;SDS011;25997;50.214;19.354;2022-09-01T17:26:00;24.98;;;16.27;;
40284;SDS011;25997;50.214;19.354;2022-09-01T17:29:07;12.50;;;9.52;;
40284;SDS011;25997;50.214;19.354;2022-09-01T17:32:33;9.70;;;7.73;;
40284;SDS011;25997;50.214;19.354;2022-09-01T17:35:49;21.08;;;12.05;;
40284;SDS011;25997;50.214;19.354;2022-09-01T17:39:05;16.92;;;9.77;;
40284;SDS011;25997;50.214;19.354;2022-09-01T17:42:21;15.65;;;8.98;;
40284;SDS011;25997;50.214;19.354;2022-09-01T17:45:31;10.38;;;6.53;;
40284;SDS011;25997;50.214;19.354;2022-09-01T17:51:47;9.55;;;5.43;;
40284;SDS011;25997;50.214;19.354;2022-09-01T17:55:00;9.52;;;6.25;;
40284;SDS011;25997;50.214;19.354;2022-09-01T18:01:17;14.15;;;6.63;;
40284;SDS011;25997;50.214;19.354;2022-09-01T18:04:30;11.55;;;5.72;;
40284;SDS011;25997;50.214;19.354;2022-09-01T18:07:52;6.88;;;4.60;;
40284;SDS011;25997;50.214;19.354;2022-09-01T18:11:06;16.00;;;10.50;;
40284;SDS011;25997;50.214;19.354;2022-09-01T18:14:13;22.60;;;13.13;;
40284;SDS011;25997;50.214;19.354;2022-09-01T18:17:18;14.80;;;9.50;;
40284;SDS011;25997;50.214;19.354;2022-09-01T18:20:28;8.75;;;6.28;;
40284;SDS011;25997;50.214;19.354;2022-09-01T18:23:38;9.32;;;6.55;;
40284;SDS011;25997;50.214;19.354;2022-09-01T18:26:44;16.13;;;11.15;;
40284;SDS011;25997;50.214;19.354;2022-09-01T18:29:48;17.77;;;12.43;;
40284;SDS011;25997;50.214;19.354;2022-09-01T18:32:52;33.97;;;26.02;;
40284;SDS011;25997;50.214;19.354;2022-09-01T18:36:10;15.02;;;12.70;;
40284;SDS011;25997;50.214;19.354;2022-09-01T18:39:23;16.25;;;13.45;;
40284;SDS011;25997;50.214;19.354;2022-09-01T18:42:34;16.83;;;13.60;;
40284;SDS011;25997;50.214;19.354;2022-09-01T18:45:43;16.70;;;13.90;;
40284;SDS011;25997;50.214;19.354;2022-09-01T18:48:54;12.00;;;9.20;;
40284;SDS011;25997;50.214;19.354;2022-09-01T18:52:12;13.15;;;11.75;;